Time;durP1;ratioP1;P1;durP2;ratioP2;P2;SDS_P1;SDS_P2;PMS_P1;PMS_P2;Temp;Humidity;BMP_temperature;BMP_pressure;BME280_temperature;BME280_humidity;BME280_pressure;Samples;Min_cycle;Max_cycle;Signal;HPM_P1;HPM_P2
2023/11/07 00:01:04;;;;;;;1.60;1.40;;;7.90;99.90;;;;;;1940948;72;25616;-90
2023/11/07 00:03:53;;;;;;;6.53;1.30;;;7.80;99.90;;;;;;1918409;73;25235;-89
2023/11/07 00:06:42;;;;;;;11.50;1.50;;;7.80;99.90;;;;;;1931995;74;25694;-89
2023/11/07 00:09:30;;;;;;;7.70;1.50;;;7.70;99.90;;;;;;1918410;74;25703;-89
2023/11/07 00:12:19;;;;;;;6.90;1.63;;;7.70;99.90;;;;;;1909021;74;25316;-87
2023/11/07 00:15:09;;;;;;;5.37;1.40;;;7.70;99.90;;;;;;1938744;72;25525;-89
2023/11/07 00:17:58;;;;;;;3.40;1.10;;;7.70;99.90;;;;;;1927949;72;25245;-89
2023/11/07 00:20:46;;;;;;;6.20;1.47;;;7.70;99.90;;;;;;1925850;73;25294;-89
2023/11/07 00:23:35;;;;;;;5.43;1.40;;;7.70;99.90;;;;;;1930728;73;25215;-89
2023/11/07 00:26:23;;;;;;;3.40;1.30;;;7.80;99.90;;;;;;1922804;73;25244;-89
2023/11/07 00:29:11;;;;;;;11.03;1.67;;;7.80;99.90;;;;;;1927870;73;25231;-89
2023/11/07 00:32:00;;;;;;;13.37;2.00;;;7.80;99.90;;;;;;1928232;74;25675;-89
2023/11/07 00:37:41;;;;;;;10.53;1.57;;;7.80;99.90;;;;;;1906121;74;27791;-87
2023/11/07 00:43:43;;;;;;;8.07;1.60;;;7.80;99.90;;;;;;1947474;71;27158;-87
2023/11/07 00:49:12;;;;;;;9.20;1.57;;;7.70;99.90;;;;;;1926957;72;27654;-87
2023/11/07 00:54:40;;;;;;;7.10;1.50;;;7.70;99.90;;;;;;1935648;72;27084;-87
2023/11/07 01:00:13;;;;;;;2.77;1.17;;;7.80;99.90;;;;;;2017656;69;27017;-87
2023/11/07 01:03:02;;;;;;;5.77;1.63;;;7.80;99.90;;;;;;1966391;72;25219;-87
2023/11/07 01:05:51;;;;;;;5.20;1.27;;;7.80;99.90;;;;;;1966189;72;25327;-87
2023/11/07 01:08:40;;;;;;;4.90;1.50;;;7.70;99.90;;;;;;1970874;72;25790;-86
2023/11/07 01:11:28;;;;;;;6.00;1.33;;;7.70;99.90;;;;;;1966138;72;25186;-87
2023/11/07 01:14:16;;;;;;;6.27;1.20;;;7.60;99.90;;;;;;1969471;72;25155;-88
2023/11/07 01:19:47;;;;;;;2.10;1.10;;;7.80;99.90;;;;;;1854884;75;27181;-87
2023/11/07 01:22:37;;;;;;;2.10;1.00;;;7.80;99.90;;;;;;1828057;78;25325;-87
2023/11/07 01:25:27;;;;;;;2.03;0.73;;;7.70;99.90;;;;;;1831267;77;25295;-87
2023/11/07 01:28:20;;;;;;;7.33;1.10;;;7.70;99.90;;;;;;1824956;77;25830;-87
2023/11/07 01:31:06;;;;;;;3.60;0.87;;;7.60;99.90;;;;;;1831043;78;25338;-87
2023/11/07 01:33:55;;;;;;;1.40;1.03;;;7.70;99.90;;;;;;1833900;76;25300;-87
2023/11/07 01:36:44;;;;;;;5.13;0.87;;;7.70;99.90;;;;;;1831177;78;25741;-87
2023/11/07 01:39:33;;;;;;;4.10;1.00;;;7.70;99.90;;;;;;1830715;78;25281;-87
2023/11/07 01:42:22;;;;;;;3.80;1.00;;;7.60;99.90;;;;;;1822752;76;25282;-87
2023/11/07 01:45:12;;;;;;;4.40;1.20;;;7.70;99.90;;;;;;1799164;78;25233;-87
2023/11/07 01:50:48;;;;;;;3.43;1.10;;;7.70;99.90;;;;;;1948843;72;27260;-87
2023/11/07 01:53:36;;;;;;;2.60;1.20;;;7.60;99.90;;;;;;1932517;73;25166;-87
2023/11/07 01:56:27;;;;;;;2.77;1.17;;;7.70;99.90;;;;;;1924320;73;25265;-88
2023/11/07 02:01:58;;;;;;;2.70;1.10;;;7.80;99.90;;;;;;1928994;72;27052;-87
2023/11/07 02:04:47;;;;;;;4.30;1.10;;;7.80;99.90;;;;;;1898734;73;25311;-88
2023/11/07 02:10:19;;;;;;;3.00;1.27;;;7.90;99.90;;;;;;1930280;72;27072;-87
2023/11/07 02:13:08;;;;;;;8.13;1.40;;;7.90;99.90;;;;;;1898354;75;25302;-88
2023/11/07 02:15:56;;;;;;;5.50;1.43;;;7.90;99.90;;;;;;1861754;75;25187;-88
2023/11/07 02:22:30;;;;;;;5.87;1.50;;;8.10;99.90;;;;;;1984942;71;26302;-88
2023/11/07 02:25:20;;;;;;;7.10;1.40;;;8.00;99.90;;;;;;1983012;71;25260;-88
2023/11/07 02:28:08;;;;;;;3.70;1.40;;;8.00;99.90;;;;;;1982098;72;25191;-87
2023/11/07 02:30:57;;;;;;;6.73;1.40;;;8.10;99.90;;;;;;1986219;72;25646;-87
2023/11/07 02:33:46;;;;;;;6.30;1.73;;;8.10;99.90;;;;;;1985133;72;25588;-87
2023/11/07 02:39:15;;;;;;;6.07;1.47;;;8.10;99.90;;;;;;1949373;72;26996;-87
2023/11/07 02:42:04;;;;;;;5.00;1.47;;;8.10;99.90;;;;;;1927011;73;25214;-88
2023/11/07 02:44:53;;;;;;;6.73;1.30;;;8.10;99.90;;;;;;1889689;75;25325;-87
2023/11/07 02:47:41;;;;;;;9.20;1.87;;;8.00;99.90;;;;;;1902702;74;25254;-88
2023/11/07 02:53:09;;;;;;;5.17;1.40;;;8.00;99.90;;;;;;1928227;72;27093;-87
2023/11/07 02:55:57;;;;;;;8.23;1.63;;;8.00;99.90;;;;;;1910246;73;25680;-88
2023/11/07 02:58:46;;;;;;;8.80;2.00;;;8.00;99.90;;;;;;1910928;73;25330;-88
2023/11/07 03:04:17;;;;;;;14.30;2.50;;;8.00;99.90;;;;;;1934656;72;27655;-87
2023/11/07 03:09:50;;;;;;;9.23;2.10;;;8.00;99.90;;;;;;1922536;72;27129;-87
2023/11/07 03:12:38;;;;;;;7.57;3.13;;;8.00;99.90;;;;;;1876135;75;25737;-88
2023/11/07 03:15:27;;;;;;;14.63;2.77;;;8.00;99.90;;;;;;1836371;76;25736;-87
2023/11/07 03:18:15;;;;;;;8.83;2.60;;;8.00;99.90;;;;;;1880185;75;25222;-87
2023/11/07 03:23:50;;;;;;;11.40;2.57;;;8.00;99.90;;;;;;1921686;72;27036;-88
2023/11/07 03:29:23;;;;;;;10.63;2.80;;;8.00;99.90;;;;;;1930644;72;27089;-88
2023/11/07 03:34:53;;;;;;;10.47;2.60;;;8.00;99.90;;;;;;1932184;72;27816;-87
2023/11/07 03:37:42;;;;;;;10.13;1.97;;;8.00;99.90;;;;;;1879727;75;25222;-89
2023/11/07 03:40:31;;;;;;;4.93;1.80;;;8.00;99.90;;;;;;1851683;76;25237;-89
2023/11/07 03:43:19;;;;;;;15.67;1.70;;;7.90;99.90;;;;;;1875916;75;25791;-89
2023/11/07 03:48:54;;;;;;;12.07;3.37;;;7.90;99.90;;;;;;1944549;72;27162;-88
2023/11/07 03:51:44;;;;;;;8.30;3.20;;;7.90;99.90;;;;;;1918999;73;25604;-88
2023/11/07 03:54:32;;;;;;;12.13;2.90;;;7.90;99.90;;;;;;1918610;73;25316;-87
2023/11/07 04:00:03;;;;;;;8.17;3.10;;;7.90;99.90;;;;;;1932483;72;26958;-87
2023/11/07 04:05:41;;;;;;;10.33;2.67;;;7.70;99.90;;;;;;1976339;71;27751;-87
2023/11/07 04:11:11;;;;;;;5.43;1.90;;;7.60;99.90;;;;;;1928520;72;27151;-87
2023/11/07 04:16:40;;;;;;;2.23;0.57;;;7.40;99.90;;;;;;1939826;72;27092;-87
2023/11/07 04:19:29;;;;;;;0.50;0.50;;;7.20;99.90;;;;;;1896812;73;25360;-89
2023/11/07 04:22:17;;;;;;;0.40;0.40;;;7.10;99.90;;;;;;1899378;75;25160;-89
2023/11/07 04:27:47;;;;;;;0.50;0.50;;;6.80;99.90;;;;;;1929726;72;27060;-87
2023/11/07 04:30:36;;;;;;;0.60;0.60;;;6.80;99.90;;;;;;1903675;73;25255;-89
2023/11/07 04:33:26;;;;;;;0.30;0.30;;;6.70;99.90;;;;;;1914166;73;25263;-89
2023/11/07 04:36:16;;;;;;;1.43;0.50;;;6.70;99.90;;;;;;1915788;73;25672;-89
2023/11/07 04:39:06;;;;;;;0.40;0.40;;;6.60;99.90;;;;;;1915613;73;25198;-87
2023/11/07 04:44:41;;;;;;;0.33;0.33;;;6.50;99.90;;;;;;1926104;72;27126;-87
2023/11/07 04:47:29;;;;;;;0.50;0.43;;;6.50;99.90;;;;;;1897789;75;25723;-89
2023/11/07 04:52:59;;;;;;;0.60;0.60;;;6.50;99.90;;;;;;1930746;72;27056;-87
2023/11/07 04:55:48;;;;;;;0.50;0.50;;;6.40;99.90;;;;;;1916508;73;25297;-89
2023/11/07 04:58:36;;;;;;;0.33;0.33;;;6.40;99.90;;;;;;1910480;73;25767;-86
2023/11/07 05:04:07;;;;;;;0.30;0.30;;;6.30;99.90;;;;;;1931123;72;27639;-87
2023/11/07 05:09:43;;;;;;;0.53;0.53;;;6.30;99.90;;;;;;1945073;72;26933;-87
2023/11/07 05:15:13;;;;;;;0.40;0.40;;;6.30;99.90;;;;;;1936333;72;28150;-87
2023/11/07 05:18:01;;;;;;;3.13;0.50;;;6.30;99.90;;;;;;1906676;75;25694;-87
2023/11/07 05:20:50;;;;;;;1.20;0.53;;;6.30;99.90;;;;;;1900739;73;25394;-89
2023/11/07 05:23:38;;;;;;;0.50;0.50;;;6.20;99.90;;;;;;1903034;74;25583;-87
2023/11/07 05:26:28;;;;;;;0.50;0.50;;;6.20;99.90;;;;;;1904526;75;25250;-86
2023/11/07 05:29:17;;;;;;;0.60;0.60;;;6.20;99.90;;;;;;1897736;73;25349;-89
2023/11/07 05:34:48;;;;;;;0.50;0.50;;;6.20;99.90;;;;;;1949634;72;26926;-87
2023/11/07 05:40:23;;;;;;;0.40;0.40;;;6.10;99.90;;;;;;1921558;73;27701;-87
2023/11/07 05:45:51;;;;;;;0.50;0.50;;;6.10;99.90;;;;;;1926299;72;27015;-87
2023/11/07 05:48:40;;;;;;;0.60;0.60;;;6.10;99.90;;;;;;1906563;73;25359;-87
2023/11/07 05:51:28;;;;;;;0.50;0.50;;;6.10;99.90;;;;;;1905439;73;25785;-89
2023/11/07 05:54:16;;;;;;;0.70;0.70;;;6.10;99.90;;;;;;1907030;73;25856;-89
2023/11/07 05:57:05;;;;;;;0.60;0.60;;;6.00;99.90;;;;;;1905616;73;25728;-89
2023/11/07 05:59:54;;;;;;;0.50;0.50;;;6.00;99.90;;;;;;1903091;73;25269;-87
2023/11/07 06:02:42;;;;;;;0.47;0.47;;;6.00;99.90;;;;;;1908741;73;25255;-87
2023/11/07 06:05:31;;;;;;;0.40;0.40;;;6.10;99.90;;;;;;1900155;73;25761;-87
2023/11/07 06:08:20;;;;;;;3.70;0.53;;;6.00;99.90;;;;;;1905052;73;25315;-88
2023/11/07 06:11:09;;;;;;;0.40;0.40;;;6.10;99.90;;;;;;1912142;73;25740;-89
2023/11/07 06:13:58;;;;;;;0.50;0.50;;;6.10;99.90;;;;;;1911854;73;25211;-87
2023/11/07 06:19:27;;;;;;;0.60;0.60;;;6.00;99.90;;;;;;1916755;72;27013;-87
2023/11/07 06:22:15;;;;;;;0.40;0.40;;;6.10;99.90;;;;;;1937253;73;25204;-88
2023/11/07 06:25:06;;;;;;;0.60;0.60;;;6.00;99.90;;;;;;1939111;73;25273;-88
2023/11/07 06:27:55;;;;;;;0.40;0.40;;;5.90;99.90;;;;;;1942127;73;25323;-89
2023/11/07 06:30:44;;;;;;;0.40;0.40;;;5.90;99.90;;;;;;1935996;73;25250;-88
2023/11/07 06:33:32;;;;;;;0.40;0.40;;;5.90;99.90;;;;;;1939686;73;25239;-89
2023/11/07 06:36:24;;;;;;;0.40;0.40;;;5.90;99.90;;;;;;1940733;73;25250;-89
2023/11/07 06:41:55;;;;;;;0.40;0.40;;;5.80;99.90;;;;;;1931194;72;28730;-87
2023/11/07 06:47:25;;;;;;;0.60;0.60;;;5.80;99.90;;;;;;1929808;72;27077;-87
2023/11/07 06:50:15;;;;;;;0.40;0.40;;;5.80;99.90;;;;;;1912272;75;25206;-89
2023/11/07 06:53:04;;;;;;;0.50;0.50;;;5.80;99.90;;;;;;1897027;73;25178;-89
2023/11/07 06:55:53;;;;;;;1.10;0.70;;;5.80;99.90;;;;;;1900812;75;25643;-89
2023/11/07 07:01:28;;;;;;;0.70;0.70;;;5.80;99.90;;;;;;1949079;72;27117;-87
2023/11/07 07:04:16;;;;;;;0.60;0.60;;;5.80;99.90;;;;;;1887119;74;25226;-88
2023/11/07 07:07:05;;;;;;;0.60;0.60;;;5.80;99.90;;;;;;1891786;73;25289;-88
2023/11/07 07:09:54;;;;;;;2.67;0.60;;;5.80;99.90;;;;;;1897383;73;25166;-88
2023/11/07 07:12:43;;;;;;;2.33;0.67;;;5.70;99.90;;;;;;1895792;73;25162;-88
2023/11/07 07:15:32;;;;;;;0.60;0.60;;;5.80;99.90;;;;;;1920918;73;25216;-88
2023/11/07 07:18:22;;;;;;;0.60;0.60;;;5.80;99.90;;;;;;1906853;74;25185;-88
2023/11/07 07:21:12;;;;;;;0.67;0.67;;;5.80;99.90;;;;;;1868209;75;25241;-88
2023/11/07 07:24:15;;;;;;;0.70;0.70;;;5.80;99.90;;;;;;1902420;73;25160;-88
2023/11/07 07:29:45;;;;;;;0.80;0.80;;;5.90;99.90;;;;;;1950126;72;26996;-87
2023/11/07 07:35:15;;;;;;;0.80;0.80;;;5.90;99.90;;;;;;1929706;72;26996;-86
2023/11/07 07:38:03;;;;;;;0.80;0.80;;;5.90;99.90;;;;;;1908139;73;25168;-86
2023/11/07 07:40:52;;;;;;;0.70;0.70;;;5.90;99.90;;;;;;1911561;73;25545;-87
2023/11/07 07:43:42;;;;;;;0.80;0.80;;;5.90;99.90;;;;;;1875640;74;25275;-89
2023/11/07 07:46:34;;;;;;;0.77;0.77;;;5.90;99.90;;;;;;1863155;75;25266;-88
2023/11/07 07:49:23;;;;;;;0.60;0.60;;;6.00;99.90;;;;;;1823992;77;25367;-89
2023/11/07 07:52:13;;;;;;;0.70;0.70;;;6.00;99.90;;;;;;1824942;77;25655;-87
2023/11/07 07:55:02;;;;;;;0.60;0.60;;;6.00;99.90;;;;;;1856365;75;25201;-88
2023/11/07 08:00:57;;;;;;;0.60;0.60;;;6.00;99.90;;;;;;1959976;72;27031;-87
2023/11/07 08:03:45;;;;;;;0.60;0.60;;;6.00;99.90;;;;;;1922787;74;25285;-87
2023/11/07 08:09:13;;;;;;;1.83;0.80;;;6.00;99.90;;;;;;1942749;72;26954;-87
2023/11/07 08:12:08;;;;;;;0.50;0.50;;;6.00;99.90;;;;;;1864357;76;25382;-87
2023/11/07 08:15:02;;;;;;;0.60;0.60;;;6.00;99.90;;;;;;1836421;77;26367;-89
2023/11/07 08:20:36;;;;;;;0.70;0.70;;;6.00;99.90;;;;;;1931601;72;28379;-86
2023/11/07 08:26:11;;;;;;;0.40;0.40;;;6.00;99.90;;;;;;1919809;72;27064;-87
2023/11/07 08:29:00;;;;;;;0.60;0.60;;;6.00;99.90;;;;;;1908435;75;25590;-87
2023/11/07 08:31:52;;;;;;;0.50;0.50;;;6.00;99.90;;;;;;1880824;75;25234;-87
2023/11/07 08:34:44;;;;;;;0.47;0.43;;;6.00;99.90;;;;;;1919491;73;25230;-88
2023/11/07 08:37:51;;;;;;;0.50;0.50;;;6.00;99.90;;;;;;1914503;75;25148;-89
2023/11/07 08:40:42;;;;;;;0.40;0.40;;;5.90;99.90;;;;;;1903985;73;25225;-89
2023/11/07 08:46:14;;;;;;;0.60;0.60;;;6.00;99.90;;;;;;1931642;72;27082;-87
2023/11/07 08:49:05;;;;;;;0.80;0.80;;;6.00;99.90;;;;;;1903819;75;25222;-87
2023/11/07 08:51:57;;;;;;;1.23;0.60;;;6.00;99.90;;;;;;1895436;75;25160;-88
2023/11/07 08:54:49;;;;;;;2.83;0.70;;;6.00;99.90;;;;;;1871356;76;25187;-88
2023/11/07 08:57:41;;;;;;;0.70;0.70;;;6.00;99.90;;;;;;1894679;75;25650;-88
2023/11/07 09:00:33;;;;;;;0.60;0.60;;;6.00;99.90;;;;;;1878321;75;25305;-87
2023/11/07 09:03:24;;;;;;;0.70;0.70;;;6.00;99.90;;;;;;1897361;75;25176;-88
2023/11/07 09:06:21;;;;;;;0.60;0.60;;;6.00;99.90;;;;;;1907696;75;25269;-88
2023/11/07 09:09:14;;;;;;;0.50;0.50;;;6.20;99.90;;;;;;1892906;73;25306;-87
2023/11/07 09:12:00;;;;;;;0.70;0.70;;;6.20;99.90;;;;;;1864823;75;25262;-87
2023/11/07 09:14:51;;;;;;;0.60;0.60;;;6.10;99.90;;;;;;1894231;75;25924;-87
2023/11/07 09:17:41;;;;;;;1.27;0.70;;;6.10;99.90;;;;;;1897559;75;25320;-88
2023/11/07 09:20:30;;;;;;;1.17;1.00;;;6.10;99.90;;;;;;1869538;75;25314;-88
2023/11/07 09:23:21;;;;;;;2.43;0.57;;;6.10;99.90;;;;;;1891951;73;25651;-88
2023/11/07 09:26:12;;;;;;;0.70;0.70;;;6.10;99.90;;;;;;1899240;75;25299;-88
2023/11/07 09:29:08;;;;;;;0.90;0.70;;;6.10;99.90;;;;;;1890605;75;25226;-88
2023/11/07 09:31:53;;;;;;;0.60;0.60;;;6.10;99.90;;;;;;1881397;75;25264;-88
2023/11/07 09:34:44;;;;;;;0.80;0.80;;;6.20;99.90;;;;;;1879282;75;25239;-88
2023/11/07 09:37:33;;;;;;;0.70;0.70;;;6.20;99.90;;;;;;1896450;75;25345;-88
2023/11/07 09:40:25;;;;;;;0.70;0.70;;;6.10;99.90;;;;;;1887729;75;25239;-88
2023/11/07 09:43:16;;;;;;;0.60;0.60;;;6.10;99.90;;;;;;1894087;75;25245;-88
2023/11/07 09:46:11;;;;;;;0.70;0.50;;;6.10;99.90;;;;;;1874527;75;25298;-88
2023/11/07 09:49:01;;;;;;;0.60;0.60;;;6.20;99.90;;;;;;1888574;75;25252;-89
2023/11/07 09:54:33;;;;;;;0.50;0.50;;;6.10;99.90;;;;;;1927107;72;26679;-87
2023/11/07 09:57:25;;;;;;;0.50;0.50;;;6.10;99.90;;;;;;1906085;74;25734;-89
2023/11/07 10:02:56;;;;;;;0.60;0.60;;;6.00;99.90;;;;;;1921244;72;27061;-87
2023/11/07 10:08:42;;;;;;;0.60;0.60;;;6.10;99.90;;;;;;1932895;74;27627;-87
2023/11/07 10:11:32;;;;;;;2.40;1.67;;;6.00;99.90;;;;;;1903708;75;25301;-89
2023/11/07 10:14:21;;;;;;;1.37;0.90;;;6.00;99.90;;;;;;1896674;75;25832;-89
2023/11/07 10:17:21;;;;;;;0.73;0.73;;;6.10;99.90;;;;;;1906588;75;25816;-88
2023/11/07 10:20:12;;;;;;;0.60;0.60;;;6.20;99.90;;;;;;1902885;75;25796;-88
2023/11/07 10:23:02;;;;;;;0.40;0.40;;;6.30;99.90;;;;;;1903755;74;25271;-88
2023/11/07 10:25:54;;;;;;;0.70;0.70;;;6.30;99.90;;;;;;1890211;74;25199;-88
2023/11/07 10:28:44;;;;;;;0.50;0.50;;;6.20;99.90;;;;;;1889075;74;25300;-88
2023/11/07 10:31:36;;;;;;;0.40;0.40;;;6.20;99.90;;;;;;1909061;74;25243;-88
2023/11/07 10:34:27;;;;;;;0.30;0.30;;;6.20;99.90;;;;;;1900226;75;25325;-89
2023/11/07 10:37:21;;;;;;;0.40;0.40;;;6.20;99.90;;;;;;1897459;74;25215;-88
2023/11/07 10:40:11;;;;;;;2.00;0.50;;;6.20;99.90;;;;;;1868845;75;25263;-88
2023/11/07 10:43:01;;;;;;;0.57;0.57;;;6.20;99.90;;;;;;1889043;74;25283;-88
2023/11/07 10:48:48;;;;;;;0.60;0.60;;;6.10;99.90;;;;;;1943354;72;27466;-89
2023/11/07 10:51:43;;;;;;;0.60;0.60;;;6.20;99.90;;;;;;1941287;73;25173;-89
2023/11/07 10:55:13;;;;;;;0.50;0.50;;;6.20;99.90;;;;;;1907924;73;25316;-87
2023/11/07 10:58:05;;;;;;;0.50;0.50;;;6.20;99.90;;;;;;1933698;73;25237;-89
2023/11/07 11:01:16;;;;;;;0.50;0.50;;;6.20;99.90;;;;;;1935575;73;25632;-88
2023/11/07 11:04:12;;;;;;;0.63;0.63;;;6.20;99.90;;;;;;1935262;73;25280;-88
2023/11/07 11:07:07;;;;;;;0.60;0.60;;;6.10;99.90;;;;;;1921154;73;25282;-88
2023/11/07 11:10:00;;;;;;;0.73;0.73;;;6.00;99.90;;;;;;1908394;73;25304;-88
2023/11/07 11:12:52;;;;;;;0.60;0.60;;;5.90;99.90;;;;;;1925154;73;25308;-88
2023/11/07 11:15:46;;;;;;;0.70;0.70;;;5.90;99.90;;;;;;1944557;73;25779;-88
2023/11/07 11:21:36;;;;;;;0.83;0.80;;;5.90;99.90;;;;;;1946443;72;26938;-87
2023/11/07 11:27:52;;;;;;;0.67;0.67;;;5.90;99.90;;;;;;1950558;72;27529;-87
2023/11/07 11:31:02;;;;;;;0.70;0.70;;;5.90;99.90;;;;;;1954740;73;25725;-87
2023/11/07 11:34:44;;;;;;;0.77;0.77;;;5.80;99.90;;;;;;1920091;73;25227;-90
2023/11/07 11:38:20;;;;;;;0.80;0.80;;;5.80;99.90;;;;;;1952020;72;25735;-89
2023/11/07 11:41:14;;;;;;;0.70;0.70;;;5.90;99.90;;;;;;1949246;72;25207;-89
2023/11/07 11:44:17;;;;;;;0.50;0.50;;;5.80;99.90;;;;;;1929127;73;25255;-87
2023/11/07 11:50:59;;;;;;;0.90;0.80;;;5.70;99.90;;;;;;1901806;73;25709;-89
2023/11/07 11:57:24;;;;;;;0.30;0.30;;;5.70;99.90;;;;;;1943804;72;29226;-87
2023/11/07 12:00:32;;;;;;;1.03;0.50;;;5.70;99.90;;;;;;1897337;75;25322;-89
2023/11/07 12:09:57;;;;;;;0.60;0.60;;;5.70;99.90;;;;;;1904739;73;25731;-88
2023/11/07 12:13:09;;;;;;;0.50;0.50;;;5.70;99.90;;;;;;1913308;72;25718;-89
2023/11/07 12:16:35;;;;;;;0.40;0.40;;;5.80;99.90;;;;;;1912702;72;25240;-89
2023/11/07 12:19:43;;;;;;;0.40;0.40;;;5.70;99.90;;;;;;1943260;72;25741;-89
2023/11/07 12:22:46;;;;;;;0.50;0.50;;;5.70;99.90;;;;;;1918792;72;25693;-89
2023/11/07 12:29:59;;;;;;;0.50;0.50;;;5.70;99.90;;;;;;1904606;73;25689;-89
2023/11/07 12:33:02;;;;;;;0.60;0.60;;;5.80;99.90;;;;;;1856551;75;25278;-89
2023/11/07 12:45:50;;;;;;;1.33;1.30;;;5.70;99.90;;;;;;1927713;72;28810;-87
2023/11/07 12:49:01;;;;;;;1.20;1.20;;;5.70;99.90;;;;;;1895765;74;25261;-90
2023/11/07 12:51:57;;;;;;;1.00;1.00;;;5.70;99.90;;;;;;1903673;75;25243;-87
2023/11/07 12:54:57;;;;;;;0.60;0.60;;;5.70;99.90;;;;;;1908200;75;25219;-87
2023/11/07 13:01:23;;;;;;;0.50;0.50;;;5.70;99.90;;;;;;1945038;72;31942;-90
2023/11/07 13:04:23;;;;;;;1.23;0.57;;;5.70;99.90;;;;;;1921756;72;25208;-90
2023/11/07 13:07:34;;;;;;;0.40;0.40;;;5.70;99.90;;;;;;1922316;72;25232;-89
2023/11/07 13:10:34;;;;;;;0.50;0.43;;;5.70;99.90;;;;;;1941339;73;25168;-89
2023/11/07 13:13:27;;;;;;;0.53;0.53;;;5.70;99.90;;;;;;1904343;74;25247;-89
2023/11/07 13:16:29;;;;;;;0.73;0.73;;;5.60;99.90;;;;;;1914461;73;25672;-89
2023/11/07 13:19:38;;;;;;;2.57;0.63;;;5.70;99.90;;;;;;1962850;72;25176;-88
2023/11/07 13:22:30;;;;;;;0.50;0.50;;;5.50;99.90;;;;;;1941072;72;25299;-88
2023/11/07 13:25:19;;;;;;;1.10;0.60;;;5.50;99.90;;;;;;1948293;72;25166;-88
2023/11/07 13:31:19;;;;;;;0.50;0.50;;;5.50;99.90;;;;;;1939626;73;25307;-88
2023/11/07 13:34:21;;;;;;;0.50;0.50;;;5.50;99.90;;;;;;1922182;72;25243;-88
2023/11/07 13:40:16;;;;;;;0.60;0.60;;;5.50;99.90;;;;;;1967011;72;26403;-90
2023/11/07 13:43:17;;;;;;;0.70;0.70;;;5.50;99.90;;;;;;1905418;74;25270;-89
2023/11/07 13:46:31;;;;;;;0.70;0.70;;;5.50;99.90;;;;;;1874050;75;25170;-90
2023/11/07 13:49:20;;;;;;;0.70;0.70;;;5.50;99.90;;;;;;1847232;77;25341;-90
2023/11/07 13:52:24;;;;;;;0.80;0.80;;;5.50;99.90;;;;;;1893892;75;25169;-90
2023/11/07 13:55:36;;;;;;;0.83;0.83;;;5.50;99.90;;;;;;1906594;75;25714;-88
2023/11/07 14:04:59;;;;;;;0.87;0.80;;;5.40;99.90;;;;;;1923153;74;25225;-89
2023/11/07 14:12:12;;;;;;;2.53;1.30;;;5.40;99.90;;;;;;1927660;74;25248;-89
2023/11/07 14:21:35;;;;;;;3.40;1.80;;;5.40;99.90;;;;;;1905643;74;25244;-89
2023/11/07 14:32:43;;;;;;;2.00;1.70;;;5.40;99.90;;;;;;1902626;75;25216;-90
2023/11/07 14:39:20;;;;;;;1.73;1.40;;;5.60;99.90;;;;;;1895482;73;25245;-88
2023/11/07 14:45:58;;;;;;;1.77;1.67;;;5.60;99.90;;;;;;1943152;72;26947;-90
2023/11/07 14:56:22;;;;;;;1.63;1.20;;;5.40;99.90;;;;;;1924455;72;25304;-89
2023/11/07 14:59:20;;;;;;;1.60;1.50;;;5.30;99.90;;;;;;1921922;72;25163;-90
2023/11/07 15:02:22;;;;;;;2.07;1.23;;;5.30;99.90;;;;;;1916116;73;25171;-90
2023/11/07 15:05:32;;;;;;;0.93;0.87;;;5.30;99.90;;;;;;1915344;73;25226;-89
2023/11/07 15:09:00;;;;;;;1.23;1.00;;;5.30;99.90;;;;;;1922610;72;25300;-89
2023/11/07 15:11:58;;;;;;;2.27;1.20;;;5.20;99.90;;;;;;1956179;72;25172;-89
2023/11/07 15:14:50;;;;;;;1.77;1.67;;;5.20;99.90;;;;;;1940355;72;25262;-89
2023/11/07 15:17:40;;;;;;;1.77;1.67;;;5.20;99.90;;;;;;1932287;72;25192;-89
2023/11/07 15:20:30;;;;;;;1.70;1.60;;;5.20;99.90;;;;;;1914259;73;25844;-89
2023/11/07 15:23:20;;;;;;;2.10;1.90;;;5.20;99.90;;;;;;1929506;72;25712;-89
2023/11/07 15:26:12;;;;;;;2.20;2.00;;;5.20;99.90;;;;;;1936924;73;25296;-89
2023/11/07 15:29:08;;;;;;;2.97;2.30;;;5.20;99.90;;;;;;1942342;72;25678;-89
2023/11/07 15:31:57;;;;;;;2.63;2.20;;;5.20;99.90;;;;;;1922755;73;25210;-89
2023/11/07 15:34:47;;;;;;;2.77;2.30;;;5.20;99.90;;;;;;1906515;73;25263;-89
2023/11/07 15:37:39;;;;;;;3.47;1.80;;;5.20;99.90;;;;;;1932468;72;25770;-89
2023/11/07 15:40:27;;;;;;;3.23;1.77;;;5.20;99.90;;;;;;1912837;73;25299;-89
2023/11/07 15:43:19;;;;;;;3.30;2.13;;;5.30;99.90;;;;;;1921598;73;25775;-89
2023/11/07 15:46:11;;;;;;;3.93;2.53;;;5.20;99.90;;;;;;1892778;73;25285;-89
2023/11/07 15:49:04;;;;;;;4.37;3.23;;;5.20;99.90;;;;;;1903229;73;25669;-89
2023/11/07 15:59:33;;;;;;;18.70;9.43;;;5.10;99.90;;;;;;2064770;68;26253;-88
2023/11/07 16:02:27;;;;;;;4.53;2.30;;;5.00;99.90;;;;;;1990191;71;25810;-90
2023/11/07 16:05:19;;;;;;;2.90;2.00;;;5.00;99.90;;;;;;2006589;71;25173;-90
2023/11/07 16:12:06;;;;;;;4.70;2.53;;;5.00;99.90;;;;;;2006076;71;25241;-90
2023/11/07 16:15:06;;;;;;;6.77;3.23;;;5.00;99.90;;;;;;2034877;70;25293;-90
2023/11/07 16:17:57;;;;;;;5.00;3.07;;;5.00;99.90;;;;;;1992699;69;25252;-90
2023/11/07 16:20:48;;;;;;;3.00;2.43;;;4.90;99.90;;;;;;2007733;70;25222;-89
2023/11/07 16:23:43;;;;;;;5.57;2.37;;;4.90;99.90;;;;;;1986920;70;25700;-89
2023/11/07 16:26:51;;;;;;;3.73;1.93;;;4.80;99.90;;;;;;1961184;71;25697;-89
2023/11/07 16:30:01;;;;;;;6.63;1.70;;;4.80;99.90;;;;;;2023124;70;25203;-90
2023/11/07 16:32:56;;;;;;;1.03;1.00;;;4.80;99.90;;;;;;2017784;70;25212;-89
2023/11/07 16:35:48;;;;;;;1.50;1.40;;;4.70;99.90;;;;;;2017880;71;25159;-90
2023/11/07 16:38:42;;;;;;;3.53;1.10;;;4.70;99.90;;;;;;2015424;70;25162;-89
2023/11/07 16:41:59;;;;;;;2.03;1.10;;;4.60;99.90;;;;;;2011008;70;25225;-89
2023/11/07 16:44:57;;;;;;;3.07;1.07;;;4.50;99.90;;;;;;1958431;72;25775;-89
2023/11/07 16:48:19;;;;;;;2.33;1.10;;;4.40;99.90;;;;;;1943626;71;25182;-90
2023/11/07 16:51:34;;;;;;;1.00;1.00;;;4.30;99.90;;;;;;1969175;72;25254;-89
2023/11/07 16:55:13;;;;;;;1.07;1.03;;;4.40;99.90;;;;;;1955189;71;25729;-90
2023/11/07 16:58:38;;;;;;;1.03;1.03;;;4.30;99.90;;;;;;1990319;71;25329;-89
2023/11/07 17:40:36;;;;;;;11.37;4.07;;;3.50;99.90;;;;;;1981832;71;27077;-88
2023/11/07 17:46:09;;;;;;;17.10;7.13;;;3.10;99.90;;;;;;1945264;72;27086;-88
2023/11/07 17:48:58;;;;;;;14.90;5.50;;;3.10;99.90;;;;;;1858844;76;25254;-87
2023/11/07 17:51:47;;;;;;;11.23;4.13;;;3.10;99.90;;;;;;1912316;73;25703;-87
2023/11/07 17:54:36;;;;;;;11.77;4.50;;;2.90;99.90;;;;;;1925900;73;25213;-90
2023/11/07 17:57:24;;;;;;;10.70;3.87;;;2.90;99.90;;;;;;1920537;73;25301;-87
2023/11/07 18:00:15;;;;;;;13.87;4.13;;;2.70;99.90;;;;;;1914749;74;25735;-88
2023/11/07 18:03:04;;;;;;;13.43;5.47;;;2.60;99.90;;;;;;1910550;73;25202;-88
2023/11/07 18:05:53;;;;;;;27.97;14.60;;;2.60;99.90;;;;;;1926761;73;25306;-88
2023/11/07 18:08:41;;;;;;;23.37;9.30;;;2.60;99.90;;;;;;1906886;73;25294;-88
2023/11/07 18:11:35;;;;;;;11.63;5.83;;;2.50;99.90;;;;;;1914136;73;25735;-88
2023/11/07 18:14:28;;;;;;;12.73;6.67;;;2.40;99.90;;;;;;1924588;73;25165;-88
2023/11/07 18:20:40;;;;;;;70.97;35.23;;;2.30;99.90;;;;;;1947394;71;26348;-87
2023/11/07 18:23:29;;;;;;;29.23;12.00;;;2.20;99.90;;;;;;1976467;71;25479;-88
2023/11/07 18:26:20;;;;;;;16.60;8.57;;;2.10;99.90;;;;;;1934659;73;25158;-89
2023/11/07 18:29:09;;;;;;;20.50;8.83;;;2.00;99.90;;;;;;1956386;71;25160;-89
2023/11/07 18:31:57;;;;;;;18.03;8.57;;;2.00;99.90;;;;;;1963850;72;25144;-88
2023/11/07 18:34:46;;;;;;;17.40;7.97;;;1.90;99.90;;;;;;1955750;72;25124;-88
2023/11/07 18:37:35;;;;;;;17.20;8.10;;;1.80;99.90;;;;;;1955140;72;25530;-88
2023/11/07 18:40:23;;;;;;;17.83;7.80;;;1.80;99.90;;;;;;1936578;72;25231;-88
2023/11/07 18:43:12;;;;;;;17.17;8.73;;;1.70;99.90;;;;;;1942278;72;25674;-88
2023/11/07 18:50:16;;;;;;;25.33;11.37;;;1.50;99.90;;;;;;1968405;71;26727;-87
2023/11/07 18:53:05;;;;;;;28.97;15.20;;;1.50;99.90;;;;;;1994351;70;25223;-89
2023/11/07 18:58:48;;;;;;;23.67;12.70;;;1.40;99.90;;;;;;1981521;71;28138;-88
2023/11/07 19:01:38;;;;;;;19.10;10.83;;;1.40;99.90;;;;;;1928442;73;25314;-88
2023/11/07 19:04:27;;;;;;;26.63;11.90;;;1.40;99.90;;;;;;1938110;72;25289;-89
2023/11/07 19:07:16;;;;;;;26.83;11.87;;;1.40;99.90;;;;;;1929648;73;25691;-89
2023/11/07 19:10:09;;;;;;;28.93;11.17;;;1.30;99.90;;;;;;1896180;73;25349;-88
2023/11/07 19:12:59;;;;;;;27.33;11.43;;;1.40;99.90;;;;;;1936319;72;25239;-87
2023/11/07 19:15:49;;;;;;;27.13;12.07;;;1.40;99.90;;;;;;1941602;72;25158;-89
2023/11/07 19:18:38;;;;;;;22.93;10.93;;;1.40;99.90;;;;;;1907188;73;25215;-89
2023/11/07 19:21:28;;;;;;;21.80;11.33;;;1.40;99.90;;;;;;1933179;73;25234;-87
2023/11/07 19:27:51;;;;;;;23.10;10.63;;;1.50;99.90;;;;;;1876631;76;25315;-88
2023/11/07 19:30:47;;;;;;;21.03;11.10;;;1.70;99.90;;;;;;1898213;73;25320;-88
2023/11/07 19:33:38;;;;;;;28.70;13.93;;;1.70;99.90;;;;;;1940666;72;25280;-88
2023/11/07 19:36:31;;;;;;;26.10;13.53;;;1.70;99.90;;;;;;1926693;73;25754;-87
2023/11/07 19:39:24;;;;;;;27.23;12.43;;;1.80;99.90;;;;;;1891459;72;25287;-87
2023/11/07 19:42:14;;;;;;;21.57;11.10;;;1.80;99.90;;;;;;1904353;72;25405;-87
2023/11/07 19:45:04;;;;;;;24.70;11.67;;;2.00;99.90;;;;;;1912923;74;25175;-87
2023/11/07 19:54:48;;;;;;;31.13;14.13;;;2.00;99.90;;;;;;1958767;72;25571;-89